Time;durP1;ratioP1;P1;durP2;ratioP2;P2;SDS_P1;SDS_P2;PMS_P1;PMS_P2;Temp;Humidity;BMP_temperature;BMP_pressure;BME280_temperature;BME280_humidity;BME280_pressure;Samples;Min_cycle;Max_cycle;Signal;HPM_P1;HPM_P2
2023/07/20 00:01:26;;;;;;;11.80;6.90;;;;;;;;;;5084381;28;20179;-86
2023/07/20 00:03:54;;;;;;;9.17;7.33;;;;;;;;;;5042749;28;20195;-85
2023/07/20 00:06:24;;;;;;;7.93;7.10;;;;;;;;;;5037620;28;20192;-86
2023/07/20 00:08:51;;;;;;;8.93;6.93;;;;;;;;;;5037636;28;20323;-86
2023/07/20 00:11:17;;;;;;;8.37;6.50;;;;;;;;;;5051741;28;20189;-85
2023/07/20 00:13:43;;;;;;;9.60;6.57;;;;;;;;;;5057901;28;20179;-86
2023/07/20 00:16:09;;;;;;;10.63;7.00;;;;;;;;;;5058182;28;20187;-86
2023/07/20 00:18:35;;;;;;;9.40;6.37;;;;;;;;;;5041886;28;20215;-86
2023/07/20 00:21:01;;;;;;;8.80;5.97;;;;;;;;;;5036698;28;20183;-86
2023/07/20 00:23:28;;;;;;;10.53;6.17;;;;;;;;;;5042600;28;20180;-86
2023/07/20 00:25:54;;;;;;;9.20;6.07;;;;;;;;;;5048346;28;20322;-86
2023/07/20 00:28:20;;;;;;;8.57;6.27;;;;;;;;;;5063993;28;20204;-86
2023/07/20 00:30:46;;;;;;;7.33;5.70;;;;;;;;;;5042693;28;20218;-86
2023/07/20 00:33:12;;;;;;;8.17;5.77;;;;;;;;;;5035070;28;20195;-86
2023/07/20 00:35:39;;;;;;;7.07;5.47;;;;;;;;;;5038390;28;20189;-86
2023/07/20 00:38:05;;;;;;;7.47;6.13;;;;;;;;;;5065858;28;20184;-86
2023/07/20 00:40:41;;;;;;;9.63;5.70;;;;;;;;;;5050236;28;20183;-86
2023/07/20 00:43:07;;;;;;;7.20;5.80;;;;;;;;;;5033852;28;20185;-87
2023/07/20 00:45:34;;;;;;;7.73;5.20;;;;;;;;;;5036471;28;20184;-86
2023/07/20 00:48:01;;;;;;;6.90;5.63;;;;;;;;;;5045251;28;20180;-87
2023/07/20 00:50:28;;;;;;;8.23;5.60;;;;;;;;;;5044678;28;20187;-86
2023/07/20 00:52:58;;;;;;;7.97;5.33;;;;;;;;;;5036168;28;20189;-86
2023/07/20 00:55:25;;;;;;;6.73;5.33;;;;;;;;;;5032887;28;20194;-87
2023/07/20 00:57:51;;;;;;;5.87;5.27;;;;;;;;;;5036782;28;20212;-86
2023/07/20 01:00:18;;;;;;;7.70;5.57;;;;;;;;;;5044491;28;20214;-86
2023/07/20 01:02:44;;;;;;;8.03;5.20;;;;;;;;;;5034113;28;20181;-86
2023/07/20 01:05:12;;;;;;;8.67;5.63;;;;;;;;;;5035102;28;20195;-86
2023/07/20 01:07:58;;;;;;;6.87;4.93;;;;;;;;;;5043646;28;20184;-87
2023/07/20 01:10:27;;;;;;;7.30;5.70;;;;;;;;;;5049839;28;20271;-87
2023/07/20 01:12:54;;;;;;;8.67;5.33;;;;;;;;;;5033751;28;20188;-87
2023/07/20 01:15:20;;;;;;;6.67;5.10;;;;;;;;;;5040709;28;20188;-87
2023/07/20 01:17:46;;;;;;;5.97;5.37;;;;;;;;;;5036506;28;20192;-87
2023/07/20 01:20:16;;;;;;;7.67;5.63;;;;;;;;;;5032618;28;20221;-86
2023/07/20 01:22:48;;;;;;;6.23;5.63;;;;;;;;;;5042703;28;20246;-87
2023/07/20 01:25:24;;;;;;;7.90;5.30;;;;;;;;;;5044950;28;20226;-87
2023/07/20 01:28:09;;;;;;;6.93;5.40;;;;;;;;;;5052415;28;20245;-87
2023/07/20 01:30:41;;;;;;;6.57;5.07;;;;;;;;;;5038732;28;20180;-87
2023/07/20 01:33:08;;;;;;;7.67;5.70;;;;;;;;;;5034187;28;20214;-87
2023/07/20 01:35:35;;;;;;;5.97;5.33;;;;;;;;;;5033129;28;20279;-87
2023/07/20 01:38:01;;;;;;;5.30;4.80;;;;;;;;;;5033193;28;20188;-87
2023/07/20 01:40:27;;;;;;;6.10;5.17;;;;;;;;;;5033308;28;20180;-86
2023/07/20 01:42:53;;;;;;;7.17;5.20;;;;;;;;;;5043334;28;20189;-86
2023/07/20 01:45:19;;;;;;;7.03;5.10;;;;;;;;;;5032947;28;20185;-86
2023/07/20 01:47:45;;;;;;;5.43;4.90;;;;;;;;;;5028644;28;20195;-86
2023/07/20 01:50:12;;;;;;;5.83;4.50;;;;;;;;;;5032826;28;20184;-86
2023/07/20 01:52:38;;;;;;;5.67;4.40;;;;;;;;;;5037760;28;20203;-86
2023/07/20 01:55:04;;;;;;;6.63;4.53;;;;;;;;;;5019179;28;20210;-86
2023/07/20 01:57:30;;;;;;;8.07;4.40;;;;;;;;;;5033337;28;20192;-86
2023/07/20 01:59:56;;;;;;;4.73;4.23;;;;;;;;;;5037914;28;20323;-87
2023/07/20 02:02:24;;;;;;;5.13;3.87;;;;;;;;;;5031591;28;20275;-86
2023/07/20 02:04:50;;;;;;;4.83;4.00;;;;;;;;;;5053008;28;20176;-86
2023/07/20 02:07:16;;;;;;;6.07;3.90;;;;;;;;;;5031548;28;20196;-87
2023/07/20 02:09:42;;;;;;;3.93;3.40;;;;;;;;;;5016692;28;20184;-87
2023/07/20 02:12:09;;;;;;;5.67;3.60;;;;;;;;;;5024585;28;20184;-87
2023/07/20 02:14:35;;;;;;;3.83;3.30;;;;;;;;;;5016277;28;20189;-86
2023/07/20 02:17:01;;;;;;;3.43;2.90;;;;;;;;;;5035070;28;20187;-86
2023/07/20 02:19:27;;;;;;;3.57;3.10;;;;;;;;;;5022471;28;20246;-87
2023/07/20 02:21:53;;;;;;;4.23;2.60;;;;;;;;;;5035095;28;20181;-86
2023/07/20 02:24:19;;;;;;;2.73;2.53;;;;;;;;;;5032096;28;20191;-86
2023/07/20 02:26:45;;;;;;;3.20;2.90;;;;;;;;;;5019948;28;20275;-86
2023/07/20 02:29:14;;;;;;;3.60;2.67;;;;;;;;;;5030851;28;20204;-86
2023/07/20 02:31:40;;;;;;;2.87;2.60;;;;;;;;;;5037587;28;20192;-86
2023/07/20 02:34:06;;;;;;;3.37;2.70;;;;;;;;;;5026077;28;20220;-86
2023/07/20 02:36:33;;;;;;;3.43;2.87;;;;;;;;;;5031853;28;20188;-87
2023/07/20 02:39:00;;;;;;;3.57;2.83;;;;;;;;;;5016195;28;20239;-86
2023/07/20 02:41:26;;;;;;;2.87;2.50;;;;;;;;;;5050438;28;20226;-87
2023/07/20 02:43:52;;;;;;;2.80;2.40;;;;;;;;;;5031169;28;20228;-87
2023/07/20 02:46:18;;;;;;;2.97;2.40;;;;;;;;;;5016815;28;20216;-87
2023/07/20 02:48:44;;;;;;;4.63;2.70;;;;;;;;;;5032004;28;20199;-86
2023/07/20 02:51:12;;;;;;;3.63;2.13;;;;;;;;;;5031881;28;20184;-86
2023/07/20 02:53:38;;;;;;;4.50;2.40;;;;;;;;;;5034323;28;20199;-87
2023/07/20 02:56:04;;;;;;;2.80;2.27;;;;;;;;;;5033521;28;20195;-87
2023/07/20 02:58:30;;;;;;;2.03;1.93;;;;;;;;;;5031505;28;20207;-86
2023/07/20 03:00:56;;;;;;;4.00;2.60;;;;;;;;;;5031322;28;20189;-86
2023/07/20 03:03:22;;;;;;;2.87;2.50;;;;;;;;;;5045209;28;20206;-86
2023/07/20 03:05:54;;;;;;;3.97;2.43;;;;;;;;;;5035391;28;20184;-87
2023/07/20 03:08:20;;;;;;;3.70;2.40;;;;;;;;;;5033628;28;20194;-86
2023/07/20 03:10:46;;;;;;;2.87;2.57;;;;;;;;;;5050897;28;20271;-86
2023/07/20 03:13:14;;;;;;;2.83;2.50;;;;;;;;;;5037014;28;20295;-86
2023/07/20 03:15:40;;;;;;;2.93;2.60;;;;;;;;;;5032441;28;20181;-87
2023/07/20 03:18:06;;;;;;;3.67;2.03;;;;;;;;;;5031881;28;20271;-86
2023/07/20 03:20:32;;;;;;;2.30;2.10;;;;;;;;;;5038393;28;20275;-86
2023/07/20 03:22:58;;;;;;;3.03;2.27;;;;;;;;;;5034763;28;20231;-86
2023/07/20 03:25:24;;;;;;;2.57;2.20;;;;;;;;;;5038806;28;20227;-87
2023/07/20 03:27:50;;;;;;;2.30;1.93;;;;;;;;;;5035381;28;20254;-86
2023/07/20 03:30:16;;;;;;;2.40;2.20;;;;;;;;;;5027975;28;20195;-86
2023/07/20 03:32:42;;;;;;;3.30;2.30;;;;;;;;;;5019217;28;20196;-86
2023/07/20 03:35:09;;;;;;;2.60;2.20;;;;;;;;;;5037222;28;20192;-86
2023/07/20 03:37:36;;;;;;;2.57;2.33;;;;;;;;;;5035226;28;20192;-86
2023/07/20 03:40:02;;;;;;;4.23;2.50;;;;;;;;;;5018785;28;20212;-86
2023/07/20 03:42:29;;;;;;;3.03;2.13;;;;;;;;;;5035365;28;20219;-86
2023/07/20 03:44:55;;;;;;;2.40;2.20;;;;;;;;;;5035309;28;20180;-86
2023/07/20 03:47:21;;;;;;;4.47;2.37;;;;;;;;;;5037614;28;20195;-86
2023/07/20 03:49:47;;;;;;;3.07;2.30;;;;;;;;;;5037235;28;20199;-86
2023/07/20 03:52:13;;;;;;;2.60;2.40;;;;;;;;;;5034908;28;20195;-86
2023/07/20 03:54:39;;;;;;;3.47;2.33;;;;;;;;;;5035934;28;20190;-86
2023/07/20 03:57:05;;;;;;;2.60;2.40;;;;;;;;;;5036815;28;20184;-86
2023/07/20 03:59:31;;;;;;;4.63;2.40;;;;;;;;;;5037225;28;20220;-86
2023/07/20 04:01:57;;;;;;;2.77;2.17;;;;;;;;;;5037302;28;20180;-86
2023/07/20 04:04:23;;;;;;;2.57;2.37;;;;;;;;;;5033471;28;20199;-86
2023/07/20 04:06:49;;;;;;;4.23;2.13;;;;;;;;;;5037633;28;20239;-86
2023/07/20 04:09:15;;;;;;;4.10;2.10;;;;;;;;;;5033666;28;20223;-86
2023/07/20 04:11:41;;;;;;;2.57;2.37;;;;;;;;;;5053107;28;20211;-86
2023/07/20 04:14:07;;;;;;;2.83;2.30;;;;;;;;;;5034981;28;20188;-86
2023/07/20 04:16:33;;;;;;;2.77;2.20;;;;;;;;;;5035222;28;20198;-86
2023/07/20 04:18:59;;;;;;;2.30;2.10;;;;;;;;;;5036460;28;20216;-87
2023/07/20 04:21:27;;;;;;;3.53;2.63;;;;;;;;;;5050212;28;20244;-85
2023/07/20 04:23:53;;;;;;;2.33;2.13;;;;;;;;;;5047490;28;20192;-86
2023/07/20 04:26:19;;;;;;;2.83;2.17;;;;;;;;;;5041575;28;20232;-86
2023/07/20 04:28:46;;;;;;;2.90;2.30;;;;;;;;;;5061466;28;20204;-86
2023/07/20 04:31:15;;;;;;;2.50;2.30;;;;;;;;;;5031284;28;20242;-86
2023/07/20 04:33:42;;;;;;;3.07;2.30;;;;;;;;;;5034215;28;20193;-86
2023/07/20 04:36:09;;;;;;;2.23;2.13;;;;;;;;;;5044455;28;20191;-86
2023/07/20 04:38:35;;;;;;;2.60;2.40;;;;;;;;;;5046104;28;20300;-86
2023/07/20 04:41:01;;;;;;;3.17;2.40;;;;;;;;;;5041614;28;20181;-86
2023/07/20 04:43:27;;;;;;;3.17;2.30;;;;;;;;;;5021043;28;20198;-86
2023/07/20 04:45:54;;;;;;;3.53;2.50;;;;;;;;;;5033634;28;20184;-86
2023/07/20 04:48:20;;;;;;;2.67;2.40;;;;;;;;;;5027355;28;20279;-86
2023/07/20 04:50:46;;;;;;;3.37;2.20;;;;;;;;;;5034541;28;20181;-86
2023/07/20 04:53:13;;;;;;;2.50;2.30;;;;;;;;;;5035973;28;20180;-86
2023/07/20 04:55:39;;;;;;;2.40;2.20;;;;;;;;;;5034286;28;20189;-86
2023/07/20 04:58:06;;;;;;;4.03;2.40;;;;;;;;;;5040271;28;20252;-86
2023/07/20 05:00:33;;;;;;;2.47;2.27;;;;;;;;;;5036656;28;20199;-86
2023/07/20 05:02:59;;;;;;;3.43;2.50;;;;;;;;;;5046174;28;20184;-85
2023/07/20 05:05:25;;;;;;;2.97;2.53;;;;;;;;;;5033933;28;20253;-85
2023/07/20 05:07:51;;;;;;;4.23;2.63;;;;;;;;;;5028742;28;20251;-85
2023/07/20 05:10:17;;;;;;;2.80;2.27;;;;;;;;;;5035375;28;20188;-85
2023/07/20 05:12:43;;;;;;;2.33;2.13;;;;;;;;;;5049320;28;20195;-86
2023/07/20 05:15:10;;;;;;;2.53;2.30;;;;;;;;;;5027758;28;20309;-86
2023/07/20 05:17:36;;;;;;;2.13;2.00;;;;;;;;;;5033158;28;20211;-86
2023/07/20 05:20:04;;;;;;;3.47;2.27;;;;;;;;;;5033792;28;20250;-85
2023/07/20 05:22:30;;;;;;;2.53;2.10;;;;;;;;;;5035621;28;20188;-85
2023/07/20 05:24:56;;;;;;;2.20;2.00;;;;;;;;;;5033864;28;20195;-85
2023/07/20 05:27:22;;;;;;;3.63;2.00;;;;;;;;;;5037370;28;20211;-86
2023/07/20 05:29:48;;;;;;;2.00;1.80;;;;;;;;;;5038534;28;20245;-86
2023/07/20 05:32:15;;;;;;;3.20;1.70;;;;;;;;;;5041167;28;20183;-86
2023/07/20 05:34:41;;;;;;;2.10;1.90;;;;;;;;;;5037620;28;20215;-86
2023/07/20 05:37:07;;;;;;;2.73;1.90;;;;;;;;;;5038831;28;20194;-86
2023/07/20 05:39:33;;;;;;;2.43;2.23;;;;;;;;;;5036504;28;20219;-86
2023/07/20 05:41:59;;;;;;;2.10;1.90;;;;;;;;;;5050803;28;20172;-86
2023/07/20 05:44:26;;;;;;;2.37;1.80;;;;;;;;;;5052527;28;20185;-86
2023/07/20 05:46:52;;;;;;;2.13;1.93;;;;;;;;;;5039618;28;20211;-86
2023/07/20 05:49:18;;;;;;;2.97;1.80;;;;;;;;;;5036137;28;20186;-86
2023/07/20 05:51:44;;;;;;;1.83;1.70;;;;;;;;;;5036345;28;20187;-85
2023/07/20 05:54:10;;;;;;;2.20;1.80;;;;;;;;;;5052974;28;20225;-86
2023/07/20 05:56:36;;;;;;;2.87;2.00;;;;;;;;;;5039198;28;20321;-86
2023/07/20 05:59:02;;;;;;;2.30;1.80;;;;;;;;;;5038685;28;20203;-86
2023/07/20 06:01:28;;;;;;;3.17;1.70;;;;;;;;;;5054443;28;20183;-87
2023/07/20 06:03:54;;;;;;;2.80;1.70;;;;;;;;;;5038567;28;20179;-86
2023/07/20 06:06:21;;;;;;;2.90;1.80;;;;;;;;;;5038854;28;20183;-85
2023/07/20 06:08:50;;;;;;;1.83;1.53;;;;;;;;;;5053331;28;20187;-86
2023/07/20 06:11:16;;;;;;;2.03;1.87;;;;;;;;;;5028783;28;20216;-86
2023/07/20 06:13:43;;;;;;;3.43;1.80;;;;;;;;;;5036786;28;20206;-85
2023/07/20 06:16:09;;;;;;;1.50;1.40;;;;;;;;;;5039267;28;20179;-86
2023/07/20 06:18:35;;;;;;;2.53;1.40;;;;;;;;;;5038661;28;20221;-86
2023/07/20 06:21:01;;;;;;;1.50;1.40;;;;;;;;;;5038893;28;20187;-86
2023/07/20 06:23:27;;;;;;;3.03;1.60;;;;;;;;;;5039022;28;20180;-86
2023/07/20 06:25:53;;;;;;;1.30;1.20;;;;;;;;;;5052669;28;20233;-86
2023/07/20 06:28:19;;;;;;;1.40;1.30;;;;;;;;;;5052396;28;20215;-86
2023/07/20 06:30:45;;;;;;;2.37;1.10;;;;;;;;;;5052548;28;20180;-86
2023/07/20 06:33:11;;;;;;;2.30;1.30;;;;;;;;;;5036039;28;20278;-86
2023/07/20 06:35:37;;;;;;;1.87;1.30;;;;;;;;;;5036217;28;20168;-87
2023/07/20 06:38:03;;;;;;;2.03;1.40;;;;;;;;;;5052513;28;20183;-87
2023/07/20 06:40:30;;;;;;;2.20;1.30;;;;;;;;;;5030636;28;20239;-84
2023/07/20 06:42:56;;;;;;;1.67;1.20;;;;;;;;;;5018580;28;20282;-86
2023/07/20 06:45:22;;;;;;;1.33;1.13;;;;;;;;;;5048425;28;20177;-85
2023/07/20 06:47:48;;;;;;;2.10;1.27;;;;;;;;;;5027299;28;20289;-86
2023/07/20 06:50:14;;;;;;;1.83;1.20;;;;;;;;;;5045625;28;20220;-85
2023/07/20 06:52:40;;;;;;;3.13;1.10;;;;;;;;;;5048179;28;20208;-85
2023/07/20 06:55:07;;;;;;;1.60;1.33;;;;;;;;;;5039365;28;20270;-85
2023/07/20 06:57:33;;;;;;;1.43;1.33;;;;;;;;;;5056331;28;20206;-85
2023/07/20 06:59:59;;;;;;;1.20;1.10;;;;;;;;;;5056233;28;20203;-85
2023/07/20 07:02:25;;;;;;;1.13;1.03;;;;;;;;;;5040066;28;20184;-85
2023/07/20 07:04:51;;;;;;;1.50;1.00;;;;;;;;;;5040150;28;20215;-85
2023/07/20 07:07:17;;;;;;;1.63;1.00;;;;;;;;;;5036470;28;20222;-84
2023/07/20 07:09:43;;;;;;;4.87;1.20;;;;;;;;;;5052974;28;20222;-85
2023/07/20 07:12:09;;;;;;;1.60;1.00;;;;;;;;;;5024442;28;20193;-85
2023/07/20 07:14:35;;;;;;;1.20;1.10;;;;;;;;;;5036099;28;20212;-85
2023/07/20 07:17:01;;;;;;;1.60;1.17;;;;;;;;;;5044950;28;20191;-85
2023/07/20 07:19:27;;;;;;;1.07;0.80;;;;;;;;;;5074075;28;20211;-85
2023/07/20 07:21:53;;;;;;;2.40;1.20;;;;;;;;;;5039682;28;20196;-85
2023/07/20 07:24:19;;;;;;;2.30;1.17;;;;;;;;;;5035646;28;20240;-85
2023/07/20 07:26:45;;;;;;;3.17;1.23;;;;;;;;;;5019885;28;20236;-85
2023/07/20 07:29:11;;;;;;;1.37;1.03;;;;;;;;;;5019553;28;20208;-85
2023/07/20 07:31:38;;;;;;;2.00;1.20;;;;;;;;;;5023486;28;20192;-86
2023/07/20 07:34:04;;;;;;;1.40;0.90;;;;;;;;;;5020065;28;20195;-86
2023/07/20 07:36:31;;;;;;;1.00;0.90;;;;;;;;;;5035923;28;20181;-85
2023/07/20 07:38:57;;;;;;;2.43;1.10;;;;;;;;;;5036095;28;20204;-85
2023/07/20 07:41:23;;;;;;;2.00;1.00;;;;;;;;;;5019633;28;20180;-85
2023/07/20 07:43:49;;;;;;;2.10;1.07;;;;;;;;;;5036110;28;20271;-85
2023/07/20 07:46:15;;;;;;;2.80;1.00;;;;;;;;;;5019799;28;20191;-85
2023/07/20 07:48:41;;;;;;;2.00;1.00;;;;;;;;;;5019810;28;20272;-84
2023/07/20 07:51:07;;;;;;;1.10;0.90;;;;;;;;;;5019947;28;20212;-85
2023/07/20 07:53:35;;;;;;;1.90;1.00;;;;;;;;;;5035625;28;20181;-84
2023/07/20 07:56:03;;;;;;;1.77;1.10;;;;;;;;;;5036045;28;20172;-85
2023/07/20 07:58:29;;;;;;;1.57;0.90;;;;;;;;;;5035921;28;20185;-85
2023/07/20 08:00:55;;;;;;;3.73;1.13;;;;;;;;;;5019298;28;20181;-85
2023/07/20 08:03:21;;;;;;;0.87;0.80;;;;;;;;;;5019189;28;20185;-85
2023/07/20 08:05:47;;;;;;;1.00;0.90;;;;;;;;;;5035425;28;20230;-84
2023/07/20 08:08:13;;;;;;;2.27;1.30;;;;;;;;;;5019148;28;20357;-84
2023/07/20 08:10:39;;;;;;;1.00;0.90;;;;;;;;;;5019152;28;20192;-85
2023/07/20 08:13:05;;;;;;;1.67;0.80;;;;;;;;;;5035658;28;20253;-84
2023/07/20 08:15:31;;;;;;;1.20;1.00;;;;;;;;;;5018634;28;20252;-84
2023/07/20 08:17:57;;;;;;;2.60;1.00;;;;;;;;;;5035455;28;20176;-84
2023/07/20 08:20:26;;;;;;;1.23;0.90;;;;;;;;;;5019281;28;20242;-84
2023/07/20 08:22:53;;;;;;;1.00;0.80;;;;;;;;;;5019943;28;20176;-83
2023/07/20 08:25:19;;;;;;;1.60;1.00;;;;;;;;;;5018885;28;20221;-83
2023/07/20 08:27:47;;;;;;;4.50;1.00;;;;;;;;;;5035012;28;20247;-82
2023/07/20 08:30:13;;;;;;;2.17;0.80;;;;;;;;;;5019819;28;20208;-83
2023/07/20 08:32:39;;;;;;;0.80;0.80;;;;;;;;;;5034674;28;20210;-82
2023/07/20 08:35:05;;;;;;;0.90;0.80;;;;;;;;;;5038619;28;20237;-82
2023/07/20 08:37:32;;;;;;;0.90;0.70;;;;;;;;;;5053218;28;20195;-82
2023/07/20 08:39:58;;;;;;;0.80;0.70;;;;;;;;;;5031115;28;20222;-81
2023/07/20 08:42:24;;;;;;;2.47;1.03;;;;;;;;;;5038231;28;20187;-81
2023/07/20 08:44:52;;;;;;;2.70;0.90;;;;;;;;;;5034787;28;20239;-82
2023/07/20 08:47:18;;;;;;;1.43;0.83;;;;;;;;;;5034803;28;20215;-82
2023/07/20 08:49:44;;;;;;;0.80;0.80;;;;;;;;;;5034718;28;20181;-82
2023/07/20 08:52:10;;;;;;;1.23;0.80;;;;;;;;;;5018066;28;20191;-82
2023/07/20 08:54:37;;;;;;;1.53;0.80;;;;;;;;;;5032736;28;20188;-84
2023/07/20 08:57:04;;;;;;;1.30;1.00;;;;;;;;;;5040465;28;20173;-84
2023/07/20 08:59:30;;;;;;;0.93;0.80;;;;;;;;;;5018300;28;20212;-84
2023/07/20 09:01:59;;;;;;;0.98;0.70;;;;;;;;;;5034311;28;20176;-84
2023/07/20 09:04:25;;;;;;;0.73;0.70;;;;;;;;;;5034014;28;20184;-84
2023/07/20 09:06:52;;;;;;;1.23;0.70;;;;;;;;;;5035146;28;20192;-84
2023/07/20 09:09:18;;;;;;;2.85;0.90;;;;;;;;;;5034490;28;20173;-84
2023/07/20 09:11:46;;;;;;;2.25;1.20;;;;;;;;;;5018053;28;20184;-84
2023/07/20 09:14:13;;;;;;;1.23;1.00;;;;;;;;;;5039351;28;20187;-82
2023/07/20 09:16:59;;;;;;;1.20;1.00;;;;;;;;;;5022134;28;20232;-81
2023/07/20 09:19:25;;;;;;;1.95;0.90;;;;;;;;;;5033572;28;20220;-81
2023/07/20 09:21:52;;;;;;;1.00;0.90;;;;;;;;;;5017458;28;20208;-81
2023/07/20 09:24:18;;;;;;;0.98;0.90;;;;;;;;;;5033840;28;20239;-81
2023/07/20 09:26:45;;;;;;;3.15;1.05;;;;;;;;;;5033800;28;20227;-81
2023/07/20 09:29:11;;;;;;;1.63;1.00;;;;;;;;;;5017172;28;20226;-81
2023/07/20 09:31:39;;;;;;;3.38;1.00;;;;;;;;;;5032887;28;20181;-80
2023/07/20 09:34:08;;;;;;;1.08;0.90;;;;;;;;;;5017733;28;20196;-80
2023/07/20 09:36:35;;;;;;;1.75;0.82;;;;;;;;;;5033474;28;20191;-81
2023/07/20 09:39:03;;;;;;;1.35;0.90;;;;;;;;;;5035673;28;20234;-81
2023/07/20 09:41:29;;;;;;;3.65;1.10;;;;;;;;;;5017066;28;20180;-81
2023/07/20 09:43:55;;;;;;;1.33;0.80;;;;;;;;;;5016908;28;20246;-81
2023/07/20 09:46:21;;;;;;;2.05;0.93;;;;;;;;;;5033184;28;20182;-81
2023/07/20 09:48:54;;;;;;;1.02;0.93;;;;;;;;;;5030253;28;20181;-81
2023/07/20 09:51:24;;;;;;;2.80;1.00;;;;;;;;;;5037077;28;20212;-82
2023/07/20 09:53:54;;;;;;;0.85;0.80;;;;;;;;;;5048361;28;20200;-81
2023/07/20 09:56:25;;;;;;;2.17;1.02;;;;;;;;;;5032991;28;20184;-81
2023/07/20 09:58:51;;;;;;;1.75;1.00;;;;;;;;;;5036946;28;20200;-82
2023/07/20 10:01:21;;;;;;;1.23;0.80;;;;;;;;;;5031636;28;20186;-81
2023/07/20 10:03:47;;;;;;;4.65;1.00;;;;;;;;;;5044290;28;20260;-82
2023/07/20 10:06:16;;;;;;;1.67;0.95;;;;;;;;;;5049105;28;20180;-81
2023/07/20 10:08:42;;;;;;;2.10;1.00;;;;;;;;;;5040086;28;20189;-81
2023/07/20 10:11:09;;;;;;;1.42;0.90;;;;;;;;;;5033244;28;20180;-81
2023/07/20 10:13:38;;;;;;;1.17;0.90;;;;;;;;;;5047888;28;20325;-82
2023/07/20 10:16:08;;;;;;;1.60;0.90;;;;;;;;;;5052513;28;20226;-81
2023/07/20 10:18:34;;;;;;;1.10;1.00;;;;;;;;;;5052344;28;20172;-82
2023/07/20 10:21:01;;;;;;;1.25;0.90;;;;;;;;;;5052501;28;20178;-82
2023/07/20 10:23:29;;;;;;;1.20;1.10;;;;;;;;;;5052093;28;20258;-82
2023/07/20 10:25:56;;;;;;;1.88;1.00;;;;;;;;;;5055136;28;20234;-80
2023/07/20 10:28:25;;;;;;;1.25;0.90;;;;;;;;;;5054240;28;20192;-81
2023/07/20 10:30:52;;;;;;;1.38;0.90;;;;;;;;;;5039069;28;20167;-81
2023/07/20 10:33:19;;;;;;;1.88;1.10;;;;;;;;;;5039367;28;20175;-81
2023/07/20 10:35:51;;;;;;;1.80;1.00;;;;;;;;;;5039374;28;20184;-81
2023/07/20 10:38:17;;;;;;;1.60;1.10;;;;;;;;;;5055726;28;20199;-81
2023/07/20 10:40:43;;;;;;;1.00;0.90;;;;;;;;;;5039238;28;20226;-81
2023/07/20 10:43:10;;;;;;;1.10;1.00;;;;;;;;;;5038955;28;20175;-82
2023/07/20 10:45:41;;;;;;;2.58;0.90;;;;;;;;;;5055930;28;20221;-81
2023/07/20 10:48:13;;;;;;;0.77;0.77;;;;;;;;;;5055068;28;20202;-82
2023/07/20 10:50:41;;;;;;;1.73;1.10;;;;;;;;;;5055334;28;20232;-81
2023/07/20 10:53:11;;;;;;;1.73;1.00;;;;;;;;;;5055426;28;20179;-81
2023/07/20 10:55:37;;;;;;;1.20;1.10;;;;;;;;;;5055416;28;20255;-81
2023/07/20 10:58:08;;;;;;;1.73;1.00;;;;;;;;;;5055823;28;20184;-81
2023/07/20 11:00:34;;;;;;;2.22;1.00;;;;;;;;;;5055468;28;20226;-81
2023/07/20 11:03:00;;;;;;;1.15;0.90;;;;;;;;;;5042496;28;20176;-81
2023/07/20 11:05:36;;;;;;;1.63;1.02;;;;;;;;;;5030694;28;20191;-81
2023/07/20 11:08:06;;;;;;;1.08;0.98;;;;;;;;;;5042191;28;20179;-80
2023/07/20 11:10:32;;;;;;;1.23;1.00;;;;;;;;;;5018989;28;20222;-81
2023/07/20 11:13:18;;;;;;;1.75;1.02;;;;;;;;;;5019149;28;20191;-81
2023/07/20 11:15:56;;;;;;;2.28;0.90;;;;;;;;;;5019305;28;20183;-81
2023/07/20 11:18:25;;;;;;;1.27;1.17;;;;;;;;;;5037819;28;20187;-81
2023/07/20 11:20:52;;;;;;;2.78;1.17;;;;;;;;;;5035799;28;20184;-80
2023/07/20 11:23:18;;;;;;;1.60;1.10;;;;;;;;;;5049036;28;20253;-81
2023/07/20 11:25:45;;;;;;;1.20;1.00;;;;;;;;;;5052005;28;20415;-82
2023/07/20 11:28:11;;;;;;;1.52;1.20;;;;;;;;;;5037157;28;20195;-81
2023/07/20 11:30:38;;;;;;;1.65;1.10;;;;;;;;;;5018376;28;20195;-81
2023/07/20 11:33:04;;;;;;;1.55;1.10;;;;;;;;;;5037530;28;20270;-80
2023/07/20 11:35:31;;;;;;;1.58;1.15;;;;;;;;;;5040244;28;20179;-80
2023/07/20 11:37:57;;;;;;;1.80;1.08;;;;;;;;;;5057291;28;20187;-81
2023/07/20 11:40:24;;;;;;;2.22;1.08;;;;;;;;;;5058858;28;20220;-81
2023/07/20 11:42:50;;;;;;;1.52;0.98;;;;;;;;;;5046293;28;20190;-81
2023/07/20 11:45:19;;;;;;;1.02;0.90;;;;;;;;;;5053665;28;20179;-80
2023/07/20 11:47:45;;;;;;;1.02;1.00;;;;;;;;;;5058516;28;20175;-81
2023/07/20 11:50:13;;;;;;;2.00;1.25;;;;;;;;;;5058668;28;20175;-86
2023/07/20 11:52:40;;;;;;;1.20;1.10;;;;;;;;;;5041617;28;20187;-85
2023/07/20 11:55:06;;;;;;;2.15;1.10;;;;;;;;;;5058540;28;20175;-86
2023/07/20 11:57:32;;;;;;;1.17;1.08;;;;;;;;;;5042600;28;20183;-86
2023/07/20 12:00:03;;;;;;;2.30;1.08;;;;;;;;;;5058653;28;20199;-85
2023/07/20 12:02:30;;;;;;;1.38;1.27;;;;;;;;;;5058598;28;20179;-86
2023/07/20 12:04:56;;;;;;;1.58;1.20;;;;;;;;;;5059297;28;20179;-86
2023/07/20 12:07:22;;;;;;;1.35;1.08;;;;;;;;;;5066806;28;20195;-86
2023/07/20 12:10:08;;;;;;;1.15;0.90;;;;;;;;;;5065211;28;20171;-86
2023/07/20 12:12:44;;;;;;;1.27;1.02;;;;;;;;;;5067477;28;20218;-86
2023/07/20 12:15:16;;;;;;;1.92;1.23;;;;;;;;;;5064506;28;20202;-86
2023/07/20 12:17:43;;;;;;;3.15;1.10;;;;;;;;;;5054087;28;20187;-85
2023/07/20 12:20:09;;;;;;;2.13;1.27;;;;;;;;;;5045733;28;20214;-85
2023/07/20 12:22:44;;;;;;;1.70;1.10;;;;;;;;;;5035475;28;20192;-86
2023/07/20 12:25:10;;;;;;;2.50;1.30;;;;;;;;;;5051529;28;20185;-86
2023/07/20 12:27:40;;;;;;;3.30;1.30;;;;;;;;;;5030101;28;20210;-86
2023/07/20 12:30:06;;;;;;;1.10;1.00;;;;;;;;;;5048078;28;20175;-86
2023/07/20 12:32:34;;;;;;;2.40;1.13;;;;;;;;;;5041496;28;20183;-85
2023/07/20 12:35:00;;;;;;;1.73;1.10;;;;;;;;;;5047249;28;20286;-85
2023/07/20 12:37:26;;;;;;;1.42;1.33;;;;;;;;;;5043773;28;20187;-84
2023/07/20 12:39:53;;;;;;;2.63;1.20;;;;;;;;;;5045714;28;20213;-84
2023/07/20 12:42:19;;;;;;;1.88;1.08;;;;;;;;;;5056863;28;20175;-84
2023/07/20 12:44:45;;;;;;;1.77;1.30;;;;;;;;;;5037749;28;20187;-85
2023/07/20 12:47:11;;;;;;;3.50;1.20;;;;;;;;;;5040979;28;20426;-83
2023/07/20 12:49:37;;;;;;;2.38;1.20;;;;;;;;;;5036044;28;20199;-83
2023/07/20 12:52:03;;;;;;;1.45;1.30;;;;;;;;;;5035901;28;20176;-84
2023/07/20 12:54:29;;;;;;;1.30;1.13;;;;;;;;;;5020869;28;20222;-84
2023/07/20 12:56:55;;;;;;;3.50;1.40;;;;;;;;;;5020934;28;20191;-80
2023/07/20 13:01:52;;;;;;;1.38;1.10;;;;;;;;;;5085322;27;1981868;-82
2023/07/20 13:04:18;;;;;;;1.70;1.30;;;;;;;;;;5113807;28;20169;-81
2023/07/20 13:06:44;;;;;;;4.00;1.30;;;;;;;;;;5097617;28;20234;-81
2023/07/20 13:09:10;;;;;;;1.55;1.10;;;;;;;;;;5094196;28;20207;-81
2023/07/20 13:11:36;;;;;;;2.53;1.25;;;;;;;;;;5077061;28;20212;-80
2023/07/20 13:14:02;;;;;;;1.60;1.20;;;;;;;;;;5093199;28;20169;-79
2023/07/20 13:16:28;;;;;;;5.15;1.38;;;;;;;;;;5076567;28;20179;-79
2023/07/20 13:18:54;;;;;;;3.28;1.20;;;;;;;;;;5093254;28;20178;-80
2023/07/20 13:21:22;;;;;;;8.55;1.50;;;;;;;;;;5113490;28;20205;-79
2023/07/20 13:23:48;;;;;;;1.40;1.20;;;;;;;;;;5113469;28;20173;-80
2023/07/20 13:26:15;;;;;;;2.15;1.13;;;;;;;;;;5095908;28;20413;-86
2023/07/20 13:28:41;;;;;;;1.63;1.00;;;;;;;;;;5102057;28;20201;-85
2023/07/20 13:31:10;;;;;;;1.40;1.02;;;;;;;;;;5111577;28;20178;-85
2023/07/20 13:33:36;;;;;;;0.88;0.88;;;;;;;;;;5093387;28;20180;-81
2023/07/20 13:36:02;;;;;;;1.27;0.90;;;;;;;;;;5093442;28;20215;-80
2023/07/20 13:38:28;;;;;;;2.47;0.98;;;;;;;;;;5121350;28;20178;-80
2023/07/20 13:40:54;;;;;;;1.23;1.10;;;;;;;;;;5077537;28;20222;-80
2023/07/20 13:43:20;;;;;;;3.42;1.10;;;;;;;;;;5093193;28;20229;-80
2023/07/20 13:45:46;;;;;;;1.30;1.10;;;;;;;;;;5076300;28;20182;-79
2023/07/20 13:48:12;;;;;;;3.72;1.15;;;;;;;;;;5094539;28;20182;-78
2023/07/20 13:50:38;;;;;;;1.33;1.05;;;;;;;;;;5076347;28;20169;-78
2023/07/20 13:53:04;;;;;;;1.17;1.08;;;;;;;;;;5091446;28;20193;-77
2023/07/20 13:55:33;;;;;;;1.63;1.00;;;;;;;;;;5076055;28;20239;-78
2023/07/20 13:57:59;;;;;;;0.95;0.90;;;;;;;;;;5076731;28;20188;-79
2023/07/20 14:00:30;;;;;;;2.50;1.10;;;;;;;;;;5076825;28;20222;-79
2023/07/20 14:02:56;;;;;;;1.70;1.00;;;;;;;;;;5090820;28;20212;-78
2023/07/20 14:05:22;;;;;;;27.27;2.33;;;;;;;;;;5095646;28;20177;-78
2023/07/20 14:07:49;;;;;;;12.25;1.42;;;;;;;;;;5091058;28;20209;-78
2023/07/20 14:10:15;;;;;;;3.60;1.27;;;;;;;;;;5077093;28;20273;-79
2023/07/20 14:12:41;;;;;;;1.92;1.30;;;;;;;;;;5083000;28;20232;-79
2023/07/20 14:15:08;;;;;;;3.10;1.50;;;;;;;;;;5082692;28;20229;-79
2023/07/20 14:17:34;;;;;;;4.20;0.93;;;;;;;;;;5117046;28;20209;-78
2023/07/20 14:20:00;;;;;;;3.03;1.10;;;;;;;;;;5089267;28;20457;-77
2023/07/20 14:22:26;;;;;;;1.00;1.00;;;;;;;;;;5077787;28;20314;-81
2023/07/20 14:24:52;;;;;;;9.85;1.58;;;;;;;;;;5077266;28;20217;-80
2023/07/20 14:27:18;;;;;;;1.00;1.00;;;;;;;;;;5061501;28;20207;-80
2023/07/20 14:29:44;;;;;;;2.50;1.10;;;;;;;;;;5061963;28;20198;-80
2023/07/20 14:32:11;;;;;;;3.17;1.17;;;;;;;;;;5078240;28;20181;-80
2023/07/20 14:34:37;;;;;;;0.95;0.95;;;;;;;;;;5095209;28;20259;-80
2023/07/20 14:37:04;;;;;;;1.63;1.20;;;;;;;;;;5078979;28;20170;-80
2023/07/20 14:39:30;;;;;;;2.15;1.00;;;;;;;;;;5062118;28;20187;-80
2023/07/20 14:41:56;;;;;;;1.85;1.13;;;;;;;;;;5061784;28;20175;-81
2023/07/20 14:44:22;;;;;;;1.38;1.10;;;;;;;;;;5078354;28;20254;-83